Time;durP1;ratioP1;P1;durP2;ratioP2;P2;SDS_P1;SDS_P2;PMS_P1;PMS_P2;Temp;Humidity;BMP_temperature;BMP_pressure;BME280_temperature;BME280_humidity;BME280_pressure;Samples;Min_cycle;Max_cycle;Signal;HPM_P1;HPM_P2
2022/04/02 00:01:40;;;;;;;3.03;0.90;;;19.80;45.40;;;;;;4878856;29;20080;-62
2022/04/02 00:04:07;;;;;;;2.63;0.77;;;19.80;45.50;;;;;;4878798;29;20049;-62
2022/04/02 00:06:33;;;;;;;2.35;0.80;;;19.80;45.50;;;;;;4877595;29;20048;-62
2022/04/02 00:08:58;;;;;;;3.33;0.82;;;19.80;45.50;;;;;;4878639;29;20398;-62
2022/04/02 00:11:24;;;;;;;2.20;0.75;;;19.70;45.40;;;;;;4877599;29;20049;-63
2022/04/02 00:13:49;;;;;;;2.63;0.85;;;19.70;45.50;;;;;;4878357;29;20053;-62
2022/04/02 00:16:15;;;;;;;2.17;0.80;;;19.70;45.50;;;;;;4877620;29;20061;-62
2022/04/02 00:18:42;;;;;;;1.13;0.60;;;19.70;45.60;;;;;;4877949;29;20435;-62
2022/04/02 00:21:08;;;;;;;1.52;0.73;;;19.70;45.60;;;;;;4878598;29;20045;-62
2022/04/02 00:23:36;;;;;;;2.55;1.17;;;19.70;45.70;;;;;;4878090;29;20132;-63
2022/04/02 00:26:02;;;;;;;;;;;19.70;45.70;;;;;;4878449;29;20065;-62
2022/04/02 00:28:31;;;;;;;1.02;0.60;;;19.70;45.70;;;;;;4878330;29;20447;-62
2022/04/02 00:30:57;;;;;;;1.08;0.60;;;19.70;45.80;;;;;;4878473;29;20041;-63
2022/04/02 00:33:22;;;;;;;1.13;0.60;;;19.70;45.80;;;;;;4877528;29;20056;-62
2022/04/02 00:35:48;;;;;;;2.33;0.88;;;19.70;45.80;;;;;;4878135;29;20053;-63
2022/04/02 00:38:13;;;;;;;2.58;0.88;;;19.70;45.80;;;;;;4877972;29;20071;-63
2022/04/02 00:40:42;;;;;;;2.22;0.75;;;19.60;45.80;;;;;;4878846;29;20498;-63
2022/04/02 00:43:22;;;;;;;2.08;0.98;;;19.60;45.90;;;;;;4882083;29;20041;-62
2022/04/02 00:45:48;;;;;;;1.20;0.50;;;19.60;45.90;;;;;;4882067;29;20045;-62
2022/04/02 00:48:13;;;;;;;2.13;0.60;;;19.60;46.00;;;;;;4880547;29;20101;-62
2022/04/02 00:50:39;;;;;;;2.63;0.85;;;19.60;45.90;;;;;;4881447;29;20045;-63
2022/04/02 00:53:04;;;;;;;1.83;0.70;;;19.60;46.00;;;;;;4881945;29;20121;-63
2022/04/02 00:55:30;;;;;;;1.55;0.75;;;19.60;45.90;;;;;;4880700;29;20044;-63
2022/04/02 00:57:56;;;;;;;3.28;0.85;;;19.60;45.90;;;;;;4880347;29;20548;-62
2022/04/02 01:00:22;;;;;;;1.42;0.50;;;19.60;45.90;;;;;;4880216;29;20041;-62
2022/04/02 01:02:47;;;;;;;2.15;0.70;;;19.60;46.00;;;;;;4880994;29;20442;-62
2022/04/02 01:05:13;;;;;;;1.05;0.47;;;19.60;46.00;;;;;;4880869;29;20083;-63
2022/04/02 01:07:39;;;;;;;1.90;0.50;;;19.60;46.00;;;;;;4879198;29;20497;-62
2022/04/02 01:10:05;;;;;;;0.68;0.38;;;19.60;46.00;;;;;;4881194;29;20371;-62
2022/04/02 01:12:30;;;;;;;2.53;0.90;;;19.60;46.00;;;;;;4881127;29;20553;-62
2022/04/02 01:14:56;;;;;;;2.53;0.50;;;19.60;46.00;;;;;;4880338;29;20080;-63
2022/04/02 01:17:22;;;;;;;0.98;0.50;;;19.60;46.10;;;;;;4880871;29;20057;-63
2022/04/02 01:19:47;;;;;;;1.50;0.50;;;19.60;46.00;;;;;;4880929;29;20068;-63
2022/04/02 01:22:13;;;;;;;1.88;0.82;;;19.60;46.00;;;;;;4880106;29;20048;-63
2022/04/02 01:24:39;;;;;;;2.42;0.68;;;19.60;46.00;;;;;;4881030;29;20044;-62
2022/04/02 01:27:04;;;;;;;2.05;0.50;;;19.60;45.90;;;;;;4881057;29;20090;-62
2022/04/02 01:29:33;;;;;;;1.45;0.60;;;19.60;45.90;;;;;;4878820;29;20857;-62
2022/04/02 01:31:59;;;;;;;1.17;0.40;;;19.60;45.90;;;;;;4881084;29;20041;-62
2022/04/02 01:34:24;;;;;;;1.02;0.40;;;19.60;45.90;;;;;;4880539;29;20059;-62
2022/04/02 01:36:50;;;;;;;1.73;0.70;;;19.60;45.90;;;;;;4880502;29;20052;-63
2022/04/02 01:39:15;;;;;;;1.00;0.50;;;19.60;45.90;;;;;;4880228;29;20061;-62
2022/04/02 01:41:41;;;;;;;1.20;0.50;;;19.70;45.90;;;;;;4880897;29;20056;-62
2022/04/02 01:44:07;;;;;;;2.25;0.60;;;19.70;45.90;;;;;;4879924;29;20049;-62
2022/04/02 01:46:32;;;;;;;1.98;0.60;;;19.70;45.90;;;;;;4880206;29;20049;-62
2022/04/02 01:48:58;;;;;;;2.22;0.60;;;19.70;45.90;;;;;;4880636;29;20085;-62
2022/04/02 01:51:23;;;;;;;1.98;0.70;;;19.70;45.90;;;;;;4879245;29;20047;-62
2022/04/02 01:53:49;;;;;;;1.23;0.47;;;19.70;45.90;;;;;;4880105;29;20084;-62
2022/04/02 01:56:14;;;;;;;0.70;0.40;;;19.70;45.90;;;;;;4880327;29;20045;-62
2022/04/02 01:58:40;;;;;;;1.38;0.55;;;19.70;45.90;;;;;;4879969;29;20047;-62
2022/04/02 02:01:08;;;;;;;1.75;0.60;;;19.70;45.90;;;;;;4880556;29;20438;-62
2022/04/02 02:03:34;;;;;;;;;;;19.70;45.90;;;;;;4880591;29;20534;-63
2022/04/02 02:05:59;;;;;;;1.27;0.50;;;19.70;45.90;;;;;;4879261;29;19924;-63
2022/04/02 02:08:25;;;;;;;3.30;0.77;;;19.70;45.90;;;;;;4880009;29;20086;-62
2022/04/02 02:10:50;;;;;;;1.15;0.50;;;19.70;45.90;;;;;;4879658;29;20088;-62
2022/04/02 02:13:16;;;;;;;2.10;0.68;;;19.70;45.90;;;;;;4879954;29;20053;-62
2022/04/02 02:15:41;;;;;;;1.30;0.60;;;19.70;45.90;;;;;;4879975;29;20064;-63
2022/04/02 02:18:07;;;;;;;1.17;0.40;;;19.80;45.90;;;;;;4879165;29;20492;-62
2022/04/02 02:20:32;;;;;;;1.50;0.52;;;19.70;45.80;;;;;;4879757;29;20478;-62
2022/04/02 02:22:58;;;;;;;1.45;0.40;;;19.70;45.80;;;;;;4879959;29;20057;-62
2022/04/02 02:25:24;;;;;;;2.13;0.50;;;19.70;45.90;;;;;;4879005;29;20041;-62
2022/04/02 02:27:50;;;;;;;1.30;0.50;;;19.70;45.80;;;;;;4880169;29;20080;-62
2022/04/02 02:30:16;;;;;;;1.20;0.50;;;19.80;45.90;;;;;;4879613;29;20095;-62
2022/04/02 02:32:41;;;;;;;0.98;0.47;;;19.70;45.80;;;;;;4879076;29;20049;-63
2022/04/02 02:38:06;;;;;;;0.73;0.30;;;19.80;45.80;;;;;;4879841;29;20061;-63
2022/04/02 02:40:32;;;;;;;0.60;0.40;;;19.80;45.80;;;;;;4878859;29;20045;-62
2022/04/02 02:42:57;;;;;;;2.72;0.55;;;19.80;45.80;;;;;;4882596;29;20158;-62
2022/04/02 02:45:23;;;;;;;2.00;0.40;;;19.80;45.80;;;;;;4879870;29;20045;-63
2022/04/02 02:47:48;;;;;;;0.93;0.40;;;19.80;45.70;;;;;;4879017;29;20045;-63
2022/04/02 02:50:14;;;;;;;1.70;0.40;;;19.80;45.70;;;;;;4879100;29;20045;-62
2022/04/02 02:52:39;;;;;;;1.95;0.52;;;19.80;45.70;;;;;;4879676;29;20397;-63
2022/04/02 02:55:05;;;;;;;2.15;0.55;;;19.80;45.60;;;;;;4879008;29;20131;-63
2022/04/02 02:57:40;;;;;;;0.80;0.50;;;19.80;45.60;;;;;;4879353;29;20049;-62
2022/04/02 03:00:07;;;;;;;1.73;0.50;;;19.80;45.60;;;;;;4879075;29;20049;-62
2022/04/02 03:02:33;;;;;;;1.40;0.60;;;19.80;45.60;;;;;;4879155;29;20052;-62
2022/04/02 03:04:59;;;;;;;2.03;0.60;;;19.80;45.60;;;;;;4879056;29;20067;-62
2022/04/02 03:07:25;;;;;;;1.20;0.40;;;19.80;45.50;;;;;;4878479;29;20045;-62
2022/04/02 03:09:51;;;;;;;1.23;0.47;;;19.80;45.50;;;;;;4879525;29;20044;-62
2022/04/02 03:12:16;;;;;;;0.47;0.30;;;19.90;45.60;;;;;;4878701;29;20144;-63
2022/04/02 03:14:42;;;;;;;1.17;0.45;;;19.90;45.60;;;;;;4878451;29;20125;-62
2022/04/02 03:17:09;;;;;;;0.70;0.38;;;19.90;45.60;;;;;;4879212;29;20148;-63
2022/04/02 03:19:35;;;;;;;0.77;0.32;;;19.90;45.60;;;;;;4878907;29;20064;-63
2022/04/02 03:22:00;;;;;;;1.50;0.50;;;19.90;46.30;;;;;;4878385;29;20501;-62
2022/04/02 03:24:26;;;;;;;1.15;0.40;;;19.90;45.60;;;;;;4878697;29;20049;-62
2022/04/02 03:26:52;;;;;;;1.20;0.40;;;19.90;45.50;;;;;;4879163;29;20045;-62
2022/04/02 03:29:17;;;;;;;1.20;0.40;;;19.90;45.50;;;;;;4878229;29;20053;-62
2022/04/02 03:31:44;;;;;;;0.57;0.30;;;19.90;45.50;;;;;;4879097;29;20092;-62
2022/04/02 03:34:09;;;;;;;0.63;0.30;;;19.90;45.40;;;;;;4878753;29;20525;-62
2022/04/02 03:36:35;;;;;;;0.57;0.30;;;19.90;45.40;;;;;;4877784;29;20084;-62
2022/04/02 03:39:00;;;;;;;1.15;0.40;;;19.90;45.40;;;;;;4879137;29;20040;-63
2022/04/02 03:41:26;;;;;;;1.10;0.45;;;19.90;45.40;;;;;;4878680;29;20132;-62
2022/04/02 03:43:53;;;;;;;0.93;0.40;;;19.90;45.40;;;;;;4878353;29;20056;-62
2022/04/02 03:49:03;;;;;;;0.88;0.40;;;19.90;45.30;;;;;;4879147;29;20053;-63
2022/04/02 03:51:29;;;;;;;1.33;0.45;;;19.90;45.30;;;;;;4877949;29;20049;-62
2022/04/02 03:53:54;;;;;;;0.90;0.40;;;19.90;45.30;;;;;;4878893;29;20045;-62
2022/04/02 03:56:20;;;;;;;1.80;0.40;;;19.90;45.30;;;;;;4878318;29;20451;-62
2022/04/02 03:58:45;;;;;;;1.48;0.40;;;19.90;45.20;;;;;;4878537;29;20049;-62
2022/04/02 04:01:11;;;;;;;1.35;0.47;;;19.90;45.20;;;;;;4878434;29;20056;-62
2022/04/02 04:03:36;;;;;;;1.42;0.50;;;20.00;45.30;;;;;;4877961;29;20041;-62
2022/04/02 04:06:02;;;;;;;0.75;0.30;;;19.90;45.10;;;;;;4878025;29;20061;-63
2022/04/02 04:08:27;;;;;;;1.20;0.40;;;20.00;45.20;;;;;;4877934;29;20045;-62
2022/04/02 04:10:53;;;;;;;1.95;0.40;;;20.00;45.20;;;;;;4878028;29;20049;-62
2022/04/02 04:13:18;;;;;;;0.93;0.60;;;20.00;45.10;;;;;;4878282;29;20049;-62
2022/04/02 04:15:44;;;;;;;0.90;0.35;;;20.00;45.10;;;;;;4879799;29;20497;-62
2022/04/02 04:18:09;;;;;;;0.55;0.30;;;20.00;45.10;;;;;;4881409;29;20089;-62
2022/04/02 04:20:35;;;;;;;0.77;0.30;;;20.00;45.10;;;;;;4882242;29;20397;-62
2022/04/02 04:23:00;;;;;;;1.13;0.43;;;20.00;45.10;;;;;;4881871;29;20393;-62
2022/04/02 04:25:26;;;;;;;0.95;0.32;;;20.00;45.00;;;;;;4880944;29;20064;-62
2022/04/02 04:27:51;;;;;;;0.85;0.40;;;20.00;45.00;;;;;;4882397;29;20048;-62
2022/04/02 04:30:17;;;;;;;1.33;0.75;;;20.00;45.00;;;;;;4881866;29;20092;-62
2022/04/02 04:32:42;;;;;;;0.47;0.30;;;20.00;45.00;;;;;;4881109;29;20413;-62
2022/04/02 04:35:08;;;;;;;1.15;0.50;;;20.00;45.00;;;;;;4880770;29;20052;-62
2022/04/02 04:37:35;;;;;;;1.45;0.40;;;20.00;44.90;;;;;;4881748;29;20056;-62
2022/04/02 04:40:01;;;;;;;0.93;0.45;;;20.00;44.90;;;;;;4881212;29;20132;-62
2022/04/02 04:42:26;;;;;;;1.05;0.52;;;20.00;44.90;;;;;;4881383;29;20161;-62
2022/04/02 04:44:52;;;;;;;0.60;0.38;;;20.00;44.90;;;;;;4881832;29;20493;-62
2022/04/02 04:47:17;;;;;;;1.25;0.40;;;20.00;44.80;;;;;;4880881;29;20390;-62
2022/04/02 04:49:43;;;;;;;1.00;0.30;;;20.10;44.90;;;;;;4881769;29;20397;-63
2022/04/02 04:52:08;;;;;;;0.70;0.40;;;20.10;45.50;;;;;;4881625;29;20075;-63
2022/04/02 04:54:34;;;;;;;1.50;0.50;;;20.10;44.80;;;;;;4880983;29;20504;-63
2022/04/02 04:56:59;;;;;;;0.90;0.30;;;20.10;44.80;;;;;;4881930;29;20413;-63
2022/04/02 04:59:25;;;;;;;0.70;0.40;;;20.10;44.80;;;;;;4881610;29;20045;-63
2022/04/02 05:01:50;;;;;;;0.88;0.32;;;20.10;44.80;;;;;;4880761;29;20052;-62
2022/04/02 05:04:16;;;;;;;1.13;0.55;;;20.10;44.80;;;;;;4881412;29;20068;-62
2022/04/02 05:06:41;;;;;;;0.60;0.30;;;20.10;44.70;;;;;;4880930;29;20109;-63
2022/04/02 05:09:07;;;;;;;0.30;0.30;;;20.10;44.70;;;;;;4881437;29;20049;-62
2022/04/02 05:11:32;;;;;;;1.25;0.50;;;20.10;44.70;;;;;;4881334;29;20049;-63
2022/04/02 05:13:58;;;;;;;0.35;0.30;;;20.10;44.70;;;;;;4880847;29;20049;-63
2022/04/02 05:16:26;;;;;;;1.20;0.40;;;20.10;44.70;;;;;;4880870;29;20067;-62
2022/04/02 05:18:51;;;;;;;1.15;0.47;;;20.10;44.70;;;;;;4880088;29;20515;-63
2022/04/02 05:21:17;;;;;;;0.90;0.40;;;20.10;44.60;;;;;;4878821;29;20037;-62
2022/04/02 05:23:42;;;;;;;0.60;0.30;;;20.10;44.60;;;;;;4881226;29;20049;-63
2022/04/02 05:26:08;;;;;;;0.40;0.30;;;20.10;44.60;;;;;;4881107;29;20108;-62
2022/04/02 05:28:33;;;;;;;0.73;0.30;;;20.10;44.70;;;;;;4880083;29;20086;-62
2022/04/02 05:30:59;;;;;;;0.85;0.40;;;20.10;44.60;;;;;;4880820;29;20099;-63
2022/04/02 05:33:25;;;;;;;0.65;0.30;;;20.10;44.50;;;;;;4880646;29;20045;-62
2022/04/02 05:35:50;;;;;;;1.30;0.40;;;20.10;44.60;;;;;;4880358;29;20081;-63
2022/04/02 05:38:16;;;;;;;0.82;0.30;;;20.10;44.60;;;;;;4880659;29;20045;-63
2022/04/02 05:40:41;;;;;;;0.65;0.40;;;20.10;44.50;;;;;;4880593;29;20053;-62
2022/04/02 05:43:07;;;;;;;1.02;0.40;;;20.10;44.50;;;;;;4880184;29;20465;-63
2022/04/02 05:45:33;;;;;;;1.33;0.40;;;20.10;44.50;;;;;;4880591;29;20123;-62
2022/04/02 05:47:58;;;;;;;0.95;0.25;;;20.10;44.50;;;;;;4880599;29;20043;-62
2022/04/02 05:50:25;;;;;;;1.55;0.50;;;20.20;45.30;;;;;;4879509;29;20390;-63
2022/04/02 05:52:51;;;;;;;0.82;0.30;;;20.10;44.50;;;;;;4880627;29;20057;-62
2022/04/02 05:55:17;;;;;;;0.70;0.30;;;20.20;44.60;;;;;;4880320;29;20048;-62
2022/04/02 05:57:42;;;;;;;1.25;0.55;;;20.20;44.50;;;;;;4879734;29;20507;-62
2022/04/02 06:00:10;;;;;;;0.68;0.40;;;20.20;44.50;;;;;;4879457;29;20041;-62
2022/04/02 06:02:36;;;;;;;0.30;0.30;;;20.20;44.50;;;;;;4880318;29;20379;-63
2022/04/02 06:05:02;;;;;;;1.63;0.43;;;20.20;44.50;;;;;;4878420;29;20579;-62
2022/04/02 06:07:27;;;;;;;0.90;0.40;;;20.20;44.50;;;;;;4879961;29;20132;-62
2022/04/02 06:09:53;;;;;;;1.08;0.40;;;20.20;44.50;;;;;;4880585;29;20489;-63
2022/04/02 06:12:18;;;;;;;2.03;0.55;;;20.20;44.50;;;;;;4879351;29;20132;-63
2022/04/02 06:14:44;;;;;;;0.50;0.30;;;20.20;44.50;;;;;;4880177;29;20057;-62
2022/04/02 06:17:09;;;;;;;0.70;0.40;;;20.20;44.40;;;;;;4879524;29;20096;-62
2022/04/02 06:19:35;;;;;;;1.27;0.40;;;20.20;44.50;;;;;;4879759;29;20077;-62
2022/04/02 06:22:06;;;;;;;0.82;0.35;;;20.20;44.40;;;;;;4880278;29;20059;-63
2022/04/02 06:24:35;;;;;;;0.40;0.20;;;20.20;44.50;;;;;;4879266;29;20053;-63
2022/04/02 06:27:00;;;;;;;1.42;0.45;;;20.20;44.40;;;;;;4880218;29;20040;-63
2022/04/02 06:29:26;;;;;;;1.23;0.40;;;20.20;44.40;;;;;;4879740;29;20044;-63
2022/04/02 06:31:51;;;;;;;3.08;0.40;;;20.20;44.30;;;;;;4879254;29;20069;-62
2022/04/02 06:34:17;;;;;;;1.42;0.40;;;20.20;44.30;;;;;;4879366;29;20442;-63
2022/04/02 06:36:42;;;;;;;6.53;0.40;;;20.20;44.40;;;;;;4879963;29;20104;-64
2022/04/02 06:39:08;;;;;;;1.00;0.38;;;20.30;44.30;;;;;;4878922;29;20095;-63
2022/04/02 06:41:33;;;;;;;4.45;0.50;;;20.30;44.30;;;;;;4879575;29;20045;-63
2022/04/02 06:43:59;;;;;;;1.85;0.40;;;20.30;44.40;;;;;;4879864;29;20041;-63
2022/04/02 06:46:24;;;;;;;1.27;0.40;;;20.30;44.40;;;;;;4878903;29;20052;-62
2022/04/02 06:48:50;;;;;;;1.30;0.50;;;20.30;44.40;;;;;;4879451;29;20048;-63
2022/04/02 06:51:17;;;;;;;2.88;0.55;;;20.30;44.50;;;;;;4879341;29;20056;-63
2022/04/02 06:53:42;;;;;;;0.82;0.40;;;20.30;44.40;;;;;;4879107;29;20103;-63
2022/04/02 06:56:08;;;;;;;1.95;0.50;;;20.30;44.40;;;;;;4879693;29;20092;-63
2022/04/02 06:58:34;;;;;;;3.25;0.40;;;20.30;45.20;;;;;;4879182;29;20041;-63
2022/04/02 07:01:00;;;;;;;1.80;0.70;;;20.30;44.60;;;;;;4877884;29;20052;-63
2022/04/02 07:03:25;;;;;;;2.28;0.40;;;20.30;44.60;;;;;;4878901;29;20045;-63
2022/04/02 07:05:51;;;;;;;2.60;0.43;;;20.30;44.70;;;;;;4879584;29;20045;-62
2022/04/02 07:08:17;;;;;;;2.28;0.50;;;20.30;44.70;;;;;;4878487;29;20049;-64
2022/04/02 07:10:42;;;;;;;2.10;0.70;;;20.30;44.80;;;;;;4878385;29;20049;-63
2022/04/02 07:13:08;;;;;;;4.72;0.60;;;20.40;45.10;;;;;;4879200;29;20049;-63
2022/04/02 07:15:33;;;;;;;5.57;0.40;;;20.40;45.30;;;;;;4878038;29;20120;-64
2022/04/02 07:18:09;;;;;;;3.55;0.50;;;20.40;45.50;;;;;;4879248;29;20043;-63
2022/04/02 07:20:36;;;;;;;2.83;0.57;;;20.40;45.70;;;;;;4878361;29;20049;-63
2022/04/02 07:23:02;;;;;;;2.50;0.50;;;20.40;45.80;;;;;;4879333;29;20053;-64
2022/04/02 07:25:31;;;;;;;2.33;0.68;;;20.40;45.90;;;;;;4878697;29;20390;-64
2022/04/02 07:27:57;;;;;;;4.95;0.90;;;20.50;46.00;;;;;;4878551;29;20057;-63
2022/04/02 07:30:23;;;;;;;5.32;0.82;;;20.50;46.20;;;;;;4878748;29;20100;-64
2022/04/02 07:32:49;;;;;;;3.53;0.80;;;20.50;46.30;;;;;;4878827;29;20085;-62
2022/04/02 07:35:14;;;;;;;4.60;0.82;;;20.50;46.30;;;;;;4878184;29;20074;-62
2022/04/02 07:38:02;;;;;;;4.47;0.85;;;20.50;46.40;;;;;;4879150;29;20049;-63
2022/04/02 07:40:30;;;;;;;3.15;0.70;;;20.50;46.50;;;;;;4878457;29;20572;-63
2022/04/02 07:43:23;;;;;;;2.63;0.80;;;20.50;46.50;;;;;;4878260;29;20088;-64
2022/04/02 07:45:55;;;;;;;2.95;0.80;;;20.60;46.70;;;;;;4879061;29;20048;-62
2022/04/02 07:48:21;;;;;;;3.22;0.70;;;20.60;46.60;;;;;;4878615;29;20105;-62
2022/04/02 07:50:47;;;;;;;3.72;0.70;;;20.60;46.60;;;;;;4876353;29;20057;-62
2022/04/02 07:53:19;;;;;;;3.28;0.80;;;20.60;46.60;;;;;;4877586;29;20124;-63
2022/04/02 07:55:44;;;;;;;4.18;1.00;;;20.60;46.60;;;;;;4877724;29;20473;-63
2022/04/02 07:58:10;;;;;;;2.92;1.00;;;20.60;46.60;;;;;;4877392;29;20045;-63
2022/04/02 08:00:36;;;;;;;2.60;1.10;;;20.70;46.80;;;;;;4877724;29;20089;-62
2022/04/02 08:03:01;;;;;;;3.20;1.10;;;20.70;46.60;;;;;;4876775;29;20125;-63
2022/04/02 08:05:27;;;;;;;3.95;0.63;;;20.70;46.60;;;;;;4877481;29;20059;-62
2022/04/02 08:07:55;;;;;;;2.40;0.77;;;20.70;46.50;;;;;;4878507;29;20048;-62
2022/04/02 08:10:24;;;;;;;2.00;0.68;;;20.80;46.50;;;;;;4885026;29;20128;-63
2022/04/02 08:12:50;;;;;;;1.63;0.60;;;20.80;46.50;;;;;;4897552;29;20059;-63
2022/04/02 08:15:17;;;;;;;3.55;0.93;;;20.80;46.40;;;;;;4897288;29;20049;-62
2022/04/02 08:17:44;;;;;;;2.53;0.70;;;20.80;46.40;;;;;;4896542;29;20063;-63
2022/04/02 08:20:14;;;;;;;2.50;0.90;;;20.80;46.40;;;;;;4897482;29;20119;-62
2022/04/02 08:22:40;;;;;;;3.85;0.80;;;20.90;46.40;;;;;;4897397;29;20315;-62
2022/04/02 08:25:06;;;;;;;2.42;0.85;;;20.90;46.30;;;;;;4896676;29;20037;-63
2022/04/02 08:27:41;;;;;;;2.50;0.70;;;20.90;46.30;;;;;;4896728;29;20411;-62
2022/04/02 08:30:12;;;;;;;2.70;0.70;;;20.90;46.20;;;;;;4891269;29;20056;-62
2022/04/02 08:32:44;;;;;;;2.78;0.73;;;20.90;46.20;;;;;;4858705;29;20069;-60
2022/04/02 08:35:10;;;;;;;1.83;0.60;;;21.00;46.20;;;;;;4857760;29;20046;-62
2022/04/02 08:37:48;;;;;;;1.15;0.50;;;21.00;46.20;;;;;;4861367;29;20042;-62
2022/04/02 08:40:19;;;;;;;4.22;0.90;;;21.00;46.10;;;;;;4864506;29;20045;-62
2022/04/02 08:42:57;;;;;;;5.25;0.90;;;21.00;46.10;;;;;;4860408;29;20045;-63
2022/04/02 08:45:27;;;;;;;2.65;0.77;;;21.00;46.10;;;;;;4857142;29;20049;-63
2022/04/02 08:48:01;;;;;;;2.70;0.80;;;21.10;46.10;;;;;;4864130;29;20493;-66
2022/04/02 08:50:31;;;;;;;2.47;0.68;;;21.10;46.00;;;;;;4876853;29;20500;-63
2022/04/02 08:53:00;;;;;;;1.55;0.60;;;21.10;46.00;;;;;;4877324;29;20433;-64
2022/04/02 08:55:34;;;;;;;1.80;0.70;;;21.10;45.90;;;;;;4861011;29;20121;-67
2022/04/02 08:58:08;;;;;;;2.47;0.60;;;21.20;45.90;;;;;;4877108;29;20086;-63
2022/04/02 09:00:42;;;;;;;1.45;0.60;;;21.20;45.80;;;;;;4879214;29;20047;-63
2022/04/02 09:03:45;;;;;;;1.60;0.70;;;21.20;45.80;;;;;;4881125;29;20493;-63
2022/04/02 09:06:41;;;;;;;1.98;0.70;;;21.20;45.80;;;;;;4880580;29;20473;-63
2022/04/02 09:09:08;;;;;;;4.30;0.80;;;21.20;45.80;;;;;;4881393;29;20485;-63
2022/04/02 09:11:53;;;;;;;2.20;0.70;;;21.20;45.80;;;;;;4880956;29;20382;-63
2022/04/02 09:14:32;;;;;;;1.98;0.50;;;21.20;45.90;;;;;;4879345;29;20084;-65
2022/04/02 09:17:20;;;;;;;2.65;0.70;;;21.20;45.80;;;;;;4881484;29;20516;-64
2022/04/02 09:20:00;;;;;;;3.58;0.88;;;21.20;45.90;;;;;;4881442;29;20589;-64
2022/04/02 09:22:51;;;;;;;2.70;0.70;;;21.20;45.90;;;;;;4880059;29;20055;-63
2022/04/02 09:25:43;;;;;;;3.33;0.90;;;21.20;46.00;;;;;;4880768;29;20481;-63
2022/04/02 09:28:44;;;;;;;1.75;0.70;;;21.20;46.10;;;;;;4877532;29;20061;-64
2022/04/02 09:31:20;;;;;;;1.88;0.70;;;21.20;46.10;;;;;;4880527;29;20540;-63
2022/04/02 09:34:19;;;;;;;4.15;0.73;;;21.20;46.10;;;;;;4880079;29;20057;-63
2022/04/02 09:36:59;;;;;;;2.40;0.65;;;21.20;46.10;;;;;;4880080;29;20128;-64
2022/04/02 09:39:27;;;;;;;2.28;0.70;;;21.20;46.10;;;;;;4878696;29;20037;-64
2022/04/02 09:41:58;;;;;;;;;;;21.20;46.00;;;;;;4880571;29;20049;-64
2022/04/02 09:44:58;;;;;;;2.58;0.77;;;21.20;46.00;;;;;;4880763;29;19926;-64
2022/04/02 09:47:48;;;;;;;3.67;0.70;;;21.20;46.00;;;;;;4882470;29;20052;-63
2022/04/02 09:50:21;;;;;;;1.40;0.60;;;21.20;46.00;;;;;;4879214;29;20055;-66
2022/04/02 09:53:09;;;;;;;1.83;0.70;;;21.20;46.00;;;;;;4879938;29;20102;-66
2022/04/02 09:55:40;;;;;;;3.15;0.70;;;21.20;46.10;;;;;;4879465;29;20053;-63
2022/04/02 09:58:43;;;;;;;5.90;0.75;;;21.20;46.10;;;;;;4880605;29;20056;-65
2022/04/02 10:01:25;;;;;;;1.35;0.60;;;21.20;46.10;;;;;;4880482;29;20056;-65
2022/04/02 10:04:24;;;;;;;1.88;0.52;;;21.20;46.00;;;;;;4878474;29;20049;-64
2022/04/02 10:06:50;;;;;;;2.40;0.60;;;21.20;46.00;;;;;;4880625;29;20056;-64
2022/04/02 10:09:18;;;;;;;1.67;0.55;;;21.20;46.10;;;;;;4863123;29;20049;-64
2022/04/02 10:11:57;;;;;;;2.45;0.68;;;21.10;46.10;;;;;;4880652;29;20049;-65
2022/04/02 10:14:23;;;;;;;;;;;21.10;46.10;;;;;;4879568;29;20053;-64
2022/04/02 10:16:52;;;;;;;1.75;0.77;;;21.10;46.00;;;;;;4879852;29;19980;-64
2022/04/02 10:19:18;;;;;;;3.58;0.50;;;21.10;46.10;;;;;;4878962;29;20382;-60
2022/04/02 10:21:44;;;;;;;1.80;0.63;;;21.10;46.10;;;;;;4880492;29;20060;-63
2022/04/02 10:24:20;;;;;;;3.00;0.70;;;21.10;46.00;;;;;;4878576;29;20059;-64
2022/04/02 10:26:48;;;;;;;1.23;0.60;;;21.00;45.90;;;;;;4877386;29;20053;-64
2022/04/02 10:29:15;;;;;;;2.75;0.70;;;21.00;45.90;;;;;;4880032;29;20077;-65
2022/04/02 10:31:57;;;;;;;2.20;0.55;;;21.00;45.90;;;;;;4862865;29;20091;-64
2022/04/02 10:34:38;;;;;;;2.13;0.73;;;21.00;46.60;;;;;;4889810;29;20064;-64
2022/04/02 10:37:14;;;;;;;3.50;0.90;;;21.00;45.90;;;;;;4898824;29;20060;-64
2022/04/02 10:39:54;;;;;;;2.13;0.60;;;21.00;45.80;;;;;;4898648;29;20044;-63
2022/04/02 10:42:20;;;;;;;2.47;0.70;;;21.00;45.90;;;;;;4898405;29;20052;-64
2022/04/02 10:44:57;;;;;;;2.42;0.60;;;21.00;45.80;;;;;;4896490;29;20051;-64
2022/04/02 10:47:26;;;;;;;2.37;0.50;;;21.00;45.70;;;;;;4897249;29;20048;-64
2022/04/02 10:49:51;;;;;;;2.22;0.57;;;21.00;45.70;;;;;;4867931;29;20498;-64
2022/04/02 10:52:17;;;;;;;1.02;0.60;;;21.00;45.70;;;;;;4862360;29;20053;-64
2022/04/02 10:54:43;;;;;;;3.30;0.60;;;21.00;45.50;;;;;;4862863;29;20076;-63
2022/04/02 10:57:08;;;;;;;1.13;0.60;;;21.00;45.40;;;;;;4862948;29;20053;-63
2022/04/02 10:59:34;;;;;;;0.70;0.35;;;20.90;45.40;;;;;;4877406;29;20052;-63
2022/04/02 11:02:00;;;;;;;2.25;0.40;;;20.90;45.40;;;;;;4863059;29;20098;-63
2022/04/02 11:04:31;;;;;;;1.85;0.40;;;20.90;45.40;;;;;;4879256;29;20072;-63
2022/04/02 11:06:57;;;;;;;1.63;0.50;;;20.90;45.50;;;;;;4878541;29;20386;-63
2022/04/02 11:09:36;;;;;;;2.03;0.60;;;20.90;45.50;;;;;;4879099;29;20052;-63
2022/04/02 11:12:09;;;;;;;1.55;0.47;;;20.90;45.60;;;;;;4879535;29;20053;-63
2022/04/02 11:14:45;;;;;;;1.65;0.52;;;20.90;45.70;;;;;;4878284;29;20045;-64
2022/04/02 11:17:27;;;;;;;2.03;0.77;;;20.90;45.70;;;;;;4879217;29;20045;-63
2022/04/02 11:19:56;;;;;;;3.53;0.60;;;20.90;45.50;;;;;;4878577;29;20067;-63
2022/04/02 11:22:29;;;;;;;1.52;0.60;;;20.90;45.60;;;;;;4877542;29;20374;-63
2022/04/02 11:25:00;;;;;;;2.13;0.50;;;20.90;45.60;;;;;;4879035;29;20049;-63
2022/04/02 11:27:27;;;;;;;1.83;0.60;;;20.90;45.50;;;;;;4878385;29;20040;-65
2022/04/02 11:29:52;;;;;;;1.30;0.60;;;20.90;45.40;;;;;;4890524;29;20429;-66
2022/04/02 11:32:25;;;;;;;2.10;0.70;;;20.90;45.30;;;;;;4887029;29;20049;-66
2022/04/02 11:34:51;;;;;;;2.72;0.60;;;20.90;45.00;;;;;;4896657;29;20045;-67
2022/04/02 11:37:19;;;;;;;2.17;0.85;;;21.00;45.00;;;;;;4897392;29;20202;-65
2022/04/02 11:39:52;;;;;;;2.42;0.50;;;21.00;45.10;;;;;;4897566;29;20044;-67
2022/04/02 11:42:17;;;;;;;3.58;1.00;;;21.00;45.10;;;;;;4896677;29;20053;-65
2022/04/02 11:44:56;;;;;;;1.65;0.50;;;21.00;45.10;;;;;;4896119;29;20523;-64
2022/04/02 11:47:29;;;;;;;1.90;0.43;;;21.00;45.20;;;;;;4896279;29;20477;-65
2022/04/02 11:50:06;;;;;;;2.15;0.63;;;21.00;45.20;;;;;;4881911;29;20104;-65
2022/04/02 11:52:51;;;;;;;1.98;0.70;;;21.00;45.20;;;;;;4878379;29;20056;-67
2022/04/02 11:55:17;;;;;;;1.75;0.47;;;21.10;45.10;;;;;;4877549;29;20443;-65
2022/04/02 11:57:59;;;;;;;3.15;0.52;;;21.10;45.20;;;;;;4878940;29;20112;-64
2022/04/02 12:00:29;;;;;;;3.53;0.52;;;21.10;45.10;;;;;;4878337;29;20485;-64
2022/04/02 12:02:54;;;;;;;2.15;0.40;;;21.10;45.00;;;;;;4878173;29;20083;-64
2022/04/02 12:05:23;;;;;;;3.20;0.50;;;21.10;45.00;;;;;;4878522;29;20077;-63
2022/04/02 12:07:52;;;;;;;2.10;0.50;;;21.10;45.00;;;;;;4878827;29;20068;-64
2022/04/02 12:10:25;;;;;;;2.13;0.40;;;21.20;45.00;;;;;;4877671;29;20073;-63
2022/04/02 12:12:51;;;;;;;2.28;0.50;;;21.20;45.10;;;;;;4878763;29;20053;-64
2022/04/02 12:15:17;;;;;;;1.38;0.75;;;21.20;45.10;;;;;;4878177;29;20053;-64
2022/04/02 12:18:12;;;;;;;3.55;0.43;;;21.20;45.00;;;;;;4877721;29;20124;-63
2022/04/02 12:20:39;;;;;;;1.50;0.47;;;21.20;45.00;;;;;;4878619;29;20095;-63
2022/04/02 12:23:16;;;;;;;0.80;0.45;;;21.20;44.90;;;;;;4882250;29;20120;-63
2022/04/02 12:25:53;;;;;;;1.65;0.50;;;21.20;44.90;;;;;;4897535;29;20060;-62
2022/04/02 12:28:19;;;;;;;2.22;0.57;;;21.20;45.00;;;;;;4895590;29;20481;-61
2022/04/02 12:30:48;;;;;;;2.53;0.50;;;21.20;45.00;;;;;;4876985;29;20052;-64
2022/04/02 12:33:15;;;;;;;2.50;0.50;;;21.20;45.00;;;;;;4877890;29;20506;-64
2022/04/02 12:35:44;;;;;;;1.02;0.50;;;21.10;44.90;;;;;;4876966;29;20545;-64
2022/04/02 12:38:21;;;;;;;1.45;0.40;;;21.10;44.80;;;;;;4879493;29;20052;-64
2022/04/02 12:40:47;;;;;;;1.87;0.50;;;21.10;44.80;;;;;;4880626;29;20052;-66
2022/04/02 12:43:13;;;;;;;1.58;0.60;;;21.10;44.90;;;;;;4864722;29;20036;-63
2022/04/02 12:45:38;;;;;;;1.45;0.50;;;21.20;45.00;;;;;;4878559;29;20045;-64
2022/04/02 12:48:11;;;;;;;1.40;0.50;;;21.20;44.90;;;;;;4881225;29;20029;-64
2022/04/02 12:50:38;;;;;;;1.60;0.47;;;21.20;44.90;;;;;;4878680;29;20409;-64
2022/04/02 12:53:04;;;;;;;2.55;0.70;;;21.20;44.90;;;;;;4880766;29;20056;-64
2022/04/02 12:55:32;;;;;;;1.02;0.40;;;21.20;44.90;;;;;;4888317;29;20454;-64
2022/04/02 12:58:03;;;;;;;9.07;3.47;;;21.20;44.90;;;;;;4899893;29;20053;-64
2022/04/02 13:00:32;;;;;;;22.35;8.27;;;21.20;45.40;;;;;;4900105;29;20297;-63
2022/04/02 13:02:59;;;;;;;12.75;4.53;;;21.30;46.00;;;;;;4888840;29;20045;-66